createdAt,value
2023-04-28T00:02:03.622Z,16.80
2023-04-28T00:04:30.984Z,16.80
2023-04-28T00:06:58.051Z,16.80
2023-04-28T00:09:25.056Z,16.80
2023-04-28T00:11:52.019Z,16.80
2023-04-28T00:14:19.135Z,16.80
2023-04-28T00:16:46.543Z,16.80
2023-04-28T00:19:13.639Z,16.70
2023-04-28T00:21:40.578Z,16.80
2023-04-28T00:24:07.624Z,16.70
2023-04-28T00:26:34.647Z,16.70
2023-04-28T00:29:01.586Z,16.60
2023-04-28T00:31:28.593Z,16.60
2023-04-28T00:33:55.693Z,16.60
2023-04-28T00:36:22.859Z,16.60
2023-04-28T00:38:49.774Z,16.60
2023-04-28T00:41:16.724Z,16.60
2023-04-28T00:43:48.297Z,16.60
2023-04-28T00:46:25.232Z,16.50
2023-04-28T00:48:53.241Z,16.50
2023-04-28T00:51:21.275Z,16.50
2023-04-28T00:53:48.540Z,16.50
2023-04-28T00:56:15.804Z,16.50
2023-04-28T00:58:45.771Z,16.40
2023-04-28T01:01:12.730Z,16.50
2023-04-28T01:03:41.514Z,16.40
2023-04-28T01:06:11.170Z,16.30
2023-04-28T01:08:39.579Z,16.40
2023-04-28T01:11:14.429Z,16.30
2023-04-28T01:14:01.668Z,16.30
2023-04-28T01:16:33.055Z,16.30
2023-04-28T01:19:01.482Z,16.20
2023-04-28T01:21:34.341Z,16.10
2023-04-28T01:24:10.191Z,16.00
2023-04-28T01:26:37.129Z,15.90
2023-04-28T01:29:04.055Z,15.70
2023-04-28T01:31:31.367Z,15.60
2023-04-28T01:33:58.841Z,15.60
2023-04-28T01:36:27.432Z,15.60
2023-04-28T01:38:55.145Z,15.60
2023-04-28T01:41:22.791Z,15.60
2023-04-28T01:43:49.805Z,15.70
2023-04-28T01:46:17.003Z,15.70
2023-04-28T01:48:44.066Z,15.60
2023-04-28T01:51:12.761Z,15.50
2023-04-28T01:53:40.058Z,15.30
2023-04-28T01:56:09.462Z,15.10
2023-04-28T01:58:40.871Z,14.90
2023-04-28T02:01:11.545Z,14.70
2023-04-28T02:03:39.196Z,14.60
2023-04-28T02:06:06.360Z,14.50
2023-04-28T02:08:33.349Z,14.50
2023-04-28T02:11:01.692Z,14.30
2023-04-28T02:13:28.706Z,14.10
2023-04-28T02:15:55.831Z,14.00
2023-04-28T02:18:22.817Z,13.90
2023-04-28T02:20:49.885Z,13.90
2023-04-28T02:23:17.912Z,13.90
2023-04-28T02:25:44.858Z,13.80
2023-04-28T02:28:14.150Z,13.70
2023-04-28T02:30:41.097Z,13.70
2023-04-28T02:33:08.066Z,13.60
2023-04-28T02:35:35.040Z,13.60
2023-04-28T02:38:02.027Z,13.60
2023-04-28T02:40:28.971Z,13.60
2023-04-28T02:42:56.029Z,13.60
2023-04-28T02:45:23.052Z,13.70
2023-04-28T02:47:51.023Z,13.70
2023-04-28T02:50:18.372Z,13.70
2023-04-28T02:52:47.688Z,13.70
2023-04-28T02:55:23.775Z,13.70
2023-04-28T02:57:51.839Z,13.80
2023-04-28T03:00:19.338Z,13.80
2023-04-28T03:02:48.766Z,13.80
2023-04-28T03:05:16.622Z,13.80
2023-04-28T03:07:43.842Z,13.90
2023-04-28T03:10:10.935Z,13.90
2023-04-28T03:12:38.582Z,14.00
2023-04-28T03:15:08.912Z,14.00
2023-04-28T03:17:41.717Z,14.10
2023-04-28T03:20:10.060Z,14.10
2023-04-28T03:22:38.025Z,14.10
2023-04-28T03:25:05.933Z,14.10
2023-04-28T03:27:37.543Z,14.10
2023-04-28T03:30:07.103Z,14.10
2023-04-28T03:32:34.095Z,14.10
2023-04-28T03:35:01.378Z,14.00
2023-04-28T03:37:28.382Z,14.00
2023-04-28T03:39:55.444Z,14.00
2023-04-28T03:42:22.515Z,14.00
2023-04-28T03:45:10.033Z,14.00
2023-04-28T03:47:37.175Z,13.90
2023-04-28T03:50:04.601Z,13.90
2023-04-28T03:52:31.754Z,13.90
2023-04-28T03:54:58.772Z,13.90
2023-04-28T03:57:25.888Z,13.90
2023-04-28T03:59:52.877Z,13.80
2023-04-28T04:02:20.047Z,13.80
2023-04-28T04:04:47.489Z,13.70
2023-04-28T04:07:14.938Z,13.70
2023-04-28T04:09:42.028Z,13.70
2023-04-28T04:12:09.663Z,13.70
2023-04-28T04:14:37.262Z,13.80
2023-04-28T04:17:04.579Z,13.70
2023-04-28T04:19:32.396Z,13.70
2023-04-28T04:21:59.473Z,13.60
2023-04-28T04:24:26.582Z,13.70
2023-04-28T04:26:54.534Z,13.70
2023-04-28T04:29:29.109Z,13.80
2023-04-28T04:31:56.949Z,13.70
2023-04-28T04:34:24.113Z,13.70
2023-04-28T04:36:51.400Z,13.60
2023-04-28T04:39:18.508Z,13.60
2023-04-28T04:41:45.749Z,13.60
2023-04-28T04:44:31.643Z,13.60
2023-04-28T04:47:00.697Z,13.60
2023-04-28T04:49:29.200Z,13.60
2023-04-28T04:51:56.491Z,13.70
2023-04-28T04:54:24.760Z,13.70
2023-04-28T04:56:52.527Z,13.70
2023-04-28T04:59:30.733Z,13.70
2023-04-28T05:02:07.437Z,13.70
2023-04-28T05:04:34.533Z,13.60
2023-04-28T05:07:02.088Z,13.70
2023-04-28T05:09:30.675Z,13.70
2023-04-28T05:11:58.005Z,13.70
2023-04-28T05:14:25.113Z,13.70
2023-04-28T05:16:52.472Z,13.70
2023-04-28T05:19:25.192Z,13.70
2023-04-28T05:21:54.696Z,13.80
2023-04-28T05:24:25.676Z,13.80
2023-04-28T05:26:54.181Z,13.80
2023-04-28T05:29:22.016Z,13.70
2023-04-28T05:31:49.059Z,13.80
2023-04-28T05:34:16.728Z,13.80
2023-04-28T05:36:45.271Z,13.70
2023-04-28T05:39:13.324Z,13.80
2023-04-28T05:41:42.233Z,13.80
2023-04-28T05:44:11.230Z,13.80
2023-04-28T05:46:38.542Z,13.80
2023-04-28T05:49:06.470Z,13.80
2023-04-28T05:51:37.972Z,13.80
2023-04-28T05:54:05.275Z,13.80
2023-04-28T05:56:38.246Z,13.80
2023-04-28T05:59:05.498Z,13.80
2023-04-28T06:01:32.866Z,13.80
2023-04-28T06:04:00.146Z,13.80
2023-04-28T06:06:27.939Z,13.90
2023-04-28T06:08:55.031Z,13.90
2023-04-28T06:11:22.649Z,13.80
2023-04-28T06:13:51.294Z,13.90
2023-04-28T06:16:19.286Z,13.90
2023-04-28T06:18:49.616Z,13.80
2023-04-28T06:21:17.285Z,13.80
2023-04-28T06:23:44.259Z,13.80
2023-04-28T06:26:11.328Z,13.80
2023-04-28T06:28:39.827Z,13.80
2023-04-28T06:31:08.605Z,13.80
2023-04-28T06:33:35.807Z,13.80
2023-04-28T06:36:03.573Z,13.80
2023-04-28T06:38:30.601Z,13.80
2023-04-28T06:40:57.722Z,13.80
2023-04-28T06:43:24.813Z,13.80
2023-04-28T06:46:06.828Z,13.80
2023-04-28T06:48:35.026Z,13.80
2023-04-28T06:51:02.258Z,13.70
2023-04-28T06:53:29.151Z,13.70
2023-04-28T06:55:56.617Z,13.70
2023-04-28T06:58:23.707Z,13.70
2023-04-28T07:00:50.870Z,13.70
2023-04-28T07:03:18.048Z,13.70
2023-04-28T07:05:45.193Z,13.70
2023-04-28T07:08:12.183Z,13.60
2023-04-28T07:10:39.794Z,13.70
2023-04-28T07:13:07.205Z,13.70
2023-04-28T07:15:34.820Z,13.70
2023-04-28T07:18:03.285Z,13.60
2023-04-28T07:20:30.420Z,13.60
2023-04-28T07:22:57.382Z,13.60
2023-04-28T07:25:24.418Z,13.70
2023-04-28T07:27:51.595Z,13.70
2023-04-28T07:30:27.162Z,13.70
2023-04-28T07:32:54.990Z,13.80
2023-04-28T07:35:22.447Z,13.80
2023-04-28T07:37:49.525Z,13.80
2023-04-28T07:40:17.036Z,13.90
2023-04-28T07:42:44.225Z,13.90
2023-04-28T07:45:12.055Z,13.90
2023-04-28T07:47:39.037Z,13.90
2023-04-28T07:50:07.459Z,14.00
2023-04-28T07:52:34.909Z,13.90
2023-04-28T07:55:05.415Z,13.90
2023-04-28T07:57:35.900Z,13.90
2023-04-28T08:00:06.696Z,13.90
2023-04-28T08:02:38.933Z,14.00
2023-04-28T08:05:08.101Z,14.00
2023-04-28T08:07:35.580Z,14.00
2023-04-28T08:10:02.938Z,14.00
2023-04-28T08:12:30.326Z,14.10
2023-04-28T08:14:57.492Z,14.00
2023-04-28T08:17:24.694Z,14.10
2023-04-28T08:19:51.725Z,14.10
2023-04-28T08:22:18.877Z,14.10
2023-04-28T08:24:46.364Z,14.10
2023-04-28T08:27:13.555Z,14.10
2023-04-28T08:29:40.486Z,14.10
2023-04-28T08:32:07.414Z,14.10
2023-04-28T08:34:34.758Z,14.10
2023-04-28T08:37:02.024Z,14.10
2023-04-28T08:39:29.351Z,14.10
2023-04-28T08:49:44.910Z,14.20
2023-04-28T08:52:31.554Z,14.20
2023-04-28T08:55:10.087Z,14.30
2023-04-28T09:00:27.398Z,14.30
2023-04-28T09:02:58.615Z,14.40
2023-04-28T09:05:27.424Z,14.40
2023-04-28T09:07:55.783Z,14.60
2023-04-28T09:10:24.793Z,14.60
2023-04-28T09:12:56.847Z,14.70
2023-04-28T09:15:34.139Z,14.70
2023-04-28T09:18:03.409Z,14.60
2023-04-28T09:20:32.546Z,14.60
2023-04-28T09:23:19.688Z,14.60
2023-04-28T09:26:07.813Z,14.70
2023-04-28T09:28:36.676Z,14.70
2023-04-28T09:31:04.288Z,14.70
2023-04-28T09:33:32.380Z,14.70
2023-04-28T09:36:00.157Z,14.70
2023-04-28T09:38:27.481Z,14.70
2023-04-28T09:41:01.602Z,14.80
2023-04-28T09:43:39.305Z,14.90
2023-04-28T09:46:06.531Z,14.90
2023-04-28T09:48:39.022Z,15.00
2023-04-28T09:51:07.892Z,15.00
2023-04-28T09:53:35.846Z,15.00
2023-04-28T09:56:05.488Z,15.10
2023-04-28T09:58:35.311Z,15.30
2023-04-28T10:01:03.254Z,15.40
2023-04-28T10:03:31.933Z,15.50
2023-04-28T10:05:59.710Z,15.70
2023-04-28T10:08:27.989Z,15.80
2023-04-28T10:10:57.026Z,15.80
2023-04-28T10:13:24.788Z,15.70
2023-04-28T10:15:55.545Z,15.60
2023-04-28T10:18:26.016Z,15.60
2023-04-28T10:21:03.865Z,15.60
2023-04-28T10:23:33.972Z,15.60
2023-04-28T10:26:01.023Z,15.60
2023-04-28T10:28:28.180Z,15.50
2023-04-28T10:31:12.196Z,15.60
2023-04-28T10:33:40.440Z,15.60
2023-04-28T10:36:08.486Z,15.60
2023-04-28T10:38:36.658Z,15.60
2023-04-28T10:41:04.515Z,15.60
2023-04-28T10:43:39.363Z,15.70
2023-04-28T10:46:08.603Z,15.90
2023-04-28T10:48:38.584Z,16.10
2023-04-28T10:51:05.553Z,16.40
2023-04-28T10:53:45.166Z,16.60
2023-04-28T10:56:18.679Z,16.60
2023-04-28T10:58:50.696Z,16.70
2023-04-28T11:01:28.387Z,16.90
2023-04-28T11:04:01.337Z,17.00
2023-04-28T11:06:34.522Z,17.20
2023-04-28T11:09:33.701Z,17.30
2023-04-28T11:12:00.647Z,17.40
2023-04-28T11:14:36.205Z,17.40
2023-04-28T11:17:18.746Z,17.40
2023-04-28T11:19:48.719Z,17.30
2023-04-28T11:22:18.586Z,17.30
2023-04-28T11:25:05.884Z,17.40
2023-04-28T11:27:34.584Z,17.40
2023-04-28T11:30:01.992Z,17.50
2023-04-28T11:32:35.816Z,17.70
2023-04-28T11:35:04.735Z,17.70
2023-04-28T11:37:31.925Z,17.70
2023-04-28T11:39:58.859Z,17.70
2023-04-28T11:42:27.846Z,17.70
2023-04-28T11:44:55.154Z,17.80
2023-04-28T11:47:35.008Z,17.80
2023-04-28T11:50:03.344Z,17.90
2023-04-28T11:52:30.648Z,18.20
2023-04-28T11:55:02.747Z,18.50
2023-04-28T11:57:30.972Z,18.80
2023-04-28T12:00:22.970Z,19.00
2023-04-28T12:02:52.504Z,19.30
2023-04-28T12:05:31.922Z,19.70
2023-04-28T12:08:17.044Z,19.90
2023-04-28T12:11:13.747Z,20.00
2023-04-28T12:13:58.005Z,20.00
2023-04-28T12:17:14.662Z,20.30
2023-04-28T12:20:25.602Z,20.90
2023-04-28T12:25:58.860Z,20.70
2023-04-28T12:28:44.885Z,20.60
2023-04-28T12:31:15.000Z,20.50
2023-04-28T12:33:41.956Z,20.50
2023-04-28T12:36:09.520Z,20.60
2023-04-28T12:38:48.120Z,20.60
2023-04-28T12:41:18.577Z,20.60
2023-04-28T12:43:46.284Z,20.50
2023-04-28T12:46:16.058Z,20.60
2023-04-28T12:48:44.103Z,20.60
2023-04-28T12:51:12.441Z,20.50
2023-04-28T12:53:40.554Z,20.50
2023-04-28T12:56:07.563Z,20.50
2023-04-28T12:58:35.920Z,20.50
2023-04-28T13:01:03.232Z,20.50
2023-04-28T13:03:30.331Z,20.50
2023-04-28T13:05:57.309Z,20.50
2023-04-28T13:08:24.219Z,20.50
2023-04-28T13:10:51.357Z,20.40
2023-04-28T13:13:18.215Z,20.60
2023-04-28T13:15:46.863Z,20.60
2023-04-28T13:18:14.002Z,20.80
2023-04-28T13:20:40.966Z,20.90
2023-04-28T13:23:08.844Z,21.20
2023-04-28T13:25:35.736Z,21.90
2023-04-28T13:28:02.814Z,22.60
2023-04-28T13:30:29.712Z,23.00
2023-04-28T13:32:57.460Z,24.10
2023-04-28T13:35:24.810Z,24.80
2023-04-28T13:37:55.995Z,25.30
2023-04-28T13:40:23.010Z,25.60
2023-04-28T13:42:49.976Z,25.60
2023-04-28T13:45:17.848Z,25.60
2023-04-28T13:47:45.243Z,25.90
2023-04-28T13:50:12.140Z,26.00
2023-04-28T13:52:39.053Z,26.00
2023-04-28T13:55:06.312Z,25.90
2023-04-28T13:57:34.191Z,25.60
2023-04-28T14:00:01.133Z,25.40
2023-04-28T14:02:34.443Z,25.20
2023-04-28T14:05:01.606Z,25.00
2023-04-28T14:07:28.757Z,24.90
2023-04-28T14:09:55.892Z,24.80
2023-04-28T14:12:25.836Z,24.70
2023-04-28T14:14:57.883Z,24.40
2023-04-28T14:17:27.345Z,24.00
2023-04-28T14:19:56.484Z,23.50
2023-04-28T14:22:25.245Z,23.10
2023-04-28T14:24:54.057Z,22.80
2023-04-28T14:27:22.805Z,22.40
2023-04-28T14:29:51.469Z,22.20
2023-04-28T14:32:21.795Z,22.00
2023-04-28T14:34:51.678Z,21.80
2023-04-28T14:37:20.376Z,21.60
2023-04-28T14:39:50.232Z,21.60
2023-04-28T14:42:21.309Z,21.40
2023-04-28T14:44:51.427Z,21.40
2023-04-28T14:47:19.957Z,21.40
2023-04-28T14:49:48.784Z,21.70
2023-04-28T14:52:15.784Z,22.20
2023-04-28T14:54:43.532Z,22.80
2023-04-28T14:57:11.132Z,23.30
2023-04-28T14:59:39.969Z,23.50
2023-04-28T15:02:09.587Z,23.50
2023-04-28T15:04:39.380Z,23.30
2023-04-28T15:07:10.073Z,23.10
2023-04-28T15:09:37.651Z,22.90
2023-04-28T15:12:06.403Z,22.60
2023-04-28T15:14:35.672Z,22.40
2023-04-28T15:17:04.523Z,22.10
2023-04-28T15:19:32.965Z,21.90
2023-04-28T15:22:00.790Z,21.60
2023-04-28T15:24:28.254Z,21.40
2023-04-28T15:26:56.840Z,21.30
2023-04-28T15:29:25.705Z,21.20
2023-04-28T15:31:54.244Z,21.10
2023-04-28T15:43:50.712Z,20.90
2023-04-28T15:46:23.327Z,20.80
2023-04-28T15:48:50.666Z,20.80
2023-04-28T15:51:19.283Z,20.70
2023-04-28T15:53:48.217Z,20.60
2023-04-28T15:56:21.727Z,20.60
2023-04-28T15:58:57.662Z,20.50
2023-04-28T16:01:25.553Z,20.50
2023-04-28T16:03:54.012Z,20.50
2023-04-28T16:06:22.899Z,20.50
2023-04-28T16:08:52.085Z,20.50
2023-04-28T16:11:27.392Z,20.40
2023-04-28T16:14:01.484Z,20.40
2023-04-28T16:16:34.406Z,20.30
2023-04-28T16:19:06.846Z,20.30
2023-04-28T16:21:36.358Z,20.30
2023-04-28T16:24:11.997Z,20.40
2023-04-28T16:26:40.459Z,20.40
2023-04-28T16:29:15.645Z,20.50
2023-04-28T16:31:48.540Z,20.50
2023-04-28T16:34:16.991Z,20.40
2023-04-28T16:36:51.915Z,20.40
2023-04-28T16:39:25.572Z,20.30
2023-04-28T16:41:56.140Z,20.30
2023-04-28T16:44:25.839Z,20.30
2023-04-28T16:46:55.662Z,20.30
2023-04-28T16:49:25.667Z,20.20
2023-04-28T16:52:05.151Z,20.20
2023-04-28T16:54:34.808Z,20.10
2023-04-28T16:57:08.899Z,20.10
2023-04-28T16:59:48.023Z,20.10
2023-04-28T17:02:17.373Z,20.10
2023-04-28T17:04:52.236Z,20.10
2023-04-28T17:07:21.297Z,20.00
2023-04-28T17:09:52.377Z,20.00
2023-04-28T17:12:25.748Z,20.10
2023-04-28T17:14:59.610Z,20.10
2023-04-28T17:17:37.871Z,20.20
2023-04-28T17:20:10.141Z,20.30
2023-04-28T17:23:05.438Z,20.50
2023-04-28T17:25:40.361Z,20.50
2023-04-28T17:28:09.009Z,20.50
2023-04-28T17:30:47.187Z,20.60
2023-04-28T17:33:17.457Z,20.60
2023-04-28T17:35:46.792Z,20.50
2023-04-28T17:38:21.428Z,20.40
2023-04-28T17:40:49.743Z,20.30
2023-04-28T17:43:21.579Z,20.10
2023-04-28T17:45:52.323Z,20.10
2023-04-28T17:48:22.999Z,20.00
2023-04-28T17:50:51.807Z,19.90
2023-04-28T17:53:20.704Z,19.90
2023-04-28T17:55:49.341Z,19.90
2023-04-28T17:58:17.190Z,19.90
2023-04-28T18:00:46.211Z,19.80
2023-04-28T18:03:22.038Z,19.70
2023-04-28T18:06:12.481Z,19.70
2023-04-28T18:08:50.048Z,19.60
2023-04-28T18:11:36.277Z,19.50
2023-04-28T18:14:23.453Z,19.40
2023-04-28T18:17:02.428Z,19.30
2023-04-28T18:19:35.203Z,19.20
2023-04-28T18:22:10.389Z,19.10
2023-04-28T18:24:46.957Z,19.00
2023-04-28T18:27:20.023Z,19.00
2023-04-28T18:30:03.148Z,18.90
2023-04-28T18:32:47.083Z,18.80
2023-04-28T18:35:55.612Z,18.80
2023-04-28T18:38:45.126Z,18.70
2023-04-28T18:41:27.334Z,18.60
2023-04-28T18:48:05.556Z,18.50
2023-04-28T18:50:44.346Z,18.50
2023-04-28T18:53:27.429Z,18.40
2023-04-28T18:56:05.222Z,18.40
2023-04-28T18:58:48.317Z,18.30
2023-04-28T19:01:25.160Z,18.30
2023-04-28T19:04:05.619Z,18.20
2023-04-28T19:10:57.334Z,18.20
2023-04-28T19:13:34.965Z,18.10
2023-04-28T19:16:10.952Z,18.20
2023-04-28T19:22:06.284Z,18.10
2023-04-28T19:24:36.197Z,18.00
2023-04-28T19:27:03.723Z,17.90
2023-04-28T19:29:30.761Z,17.90
2023-04-28T19:31:58.660Z,17.90
2023-04-28T19:34:25.883Z,17.90
2023-04-28T19:36:55.843Z,17.90
2023-04-28T19:39:22.786Z,17.90
2023-04-28T19:41:50.682Z,17.90
2023-04-28T19:44:18.076Z,17.90
2023-04-28T19:46:46.342Z,17.90
2023-04-28T19:49:13.417Z,17.90
2023-04-28T19:51:40.343Z,17.90
2023-04-28T19:54:07.545Z,17.90
2023-04-28T19:56:35.029Z,17.90
2023-04-28T19:59:03.021Z,17.90
2023-04-28T20:01:32.776Z,17.90
2023-04-28T20:04:00.579Z,17.90
2023-04-28T20:06:27.807Z,17.90
2023-04-28T20:08:55.192Z,17.90
2023-04-28T20:11:22.343Z,17.80
2023-04-28T20:13:49.508Z,17.80
2023-04-28T20:16:17.156Z,17.70
2023-04-28T20:18:44.025Z,17.70
2023-04-28T20:21:10.954Z,17.60
2023-04-28T20:23:37.931Z,17.60
2023-04-28T20:26:05.613Z,17.50
2023-04-28T20:28:32.536Z,17.50
2023-04-28T20:30:59.474Z,17.50
2023-04-28T20:33:26.405Z,17.40
2023-04-28T20:35:53.300Z,17.40
2023-04-28T20:38:20.328Z,17.30
2023-04-28T20:40:47.895Z,17.30
2023-04-28T20:43:15.244Z,17.30
2023-04-28T20:45:42.385Z,17.20
2023-04-28T20:48:09.320Z,17.20
2023-04-28T20:50:39.497Z,17.20
2023-04-28T20:53:06.599Z,17.20
2023-04-28T20:55:33.744Z,17.20
2023-04-28T20:58:01.048Z,17.20
2023-04-28T21:00:28.502Z,17.10
2023-04-28T21:02:55.922Z,17.10
2023-04-28T21:05:23.895Z,17.10
2023-04-28T21:07:50.867Z,17.10
2023-04-28T21:10:17.926Z,17.00
2023-04-28T21:12:45.582Z,17.00
2023-04-28T21:15:14.137Z,16.90
2023-04-28T21:17:41.166Z,16.90
2023-04-28T21:20:08.506Z,16.90
2023-04-28T21:22:35.780Z,16.80
2023-04-28T21:25:03.183Z,16.80
2023-04-28T21:27:30.080Z,16.80
2023-04-28T21:29:58.538Z,16.70
2023-04-28T21:32:26.709Z,16.70
2023-04-28T21:34:53.840Z,16.70
2023-04-28T21:37:23.057Z,16.70
2023-04-28T21:40:02.386Z,16.70
2023-04-28T21:42:49.985Z,16.70
2023-04-28T21:45:18.563Z,16.60
2023-04-28T21:47:45.920Z,16.60
2023-04-28T21:50:12.845Z,16.60
2023-04-28T21:52:44.092Z,16.60
2023-04-28T21:55:13.893Z,16.60
2023-04-28T21:57:44.062Z,16.60
2023-04-28T22:00:25.087Z,16.60
2023-04-28T22:03:05.926Z,16.50
2023-04-28T22:05:36.419Z,16.50
2023-04-28T22:08:12.569Z,16.50
2023-04-28T22:10:51.952Z,16.40
2023-04-28T22:13:29.308Z,16.50
2023-04-28T22:16:02.939Z,16.50
2023-04-28T22:18:36.337Z,16.50
2023-04-28T22:21:08.329Z,16.40
2023-04-28T22:23:39.840Z,16.40
2023-04-28T22:26:08.842Z,16.40
2023-04-28T22:28:38.186Z,16.40
2023-04-28T22:31:12.540Z,16.40
2023-04-28T22:33:47.333Z,16.30
2023-04-28T22:36:24.497Z,16.40
2023-04-28T22:39:01.396Z,16.30
2023-04-28T22:41:39.878Z,16.30
2023-04-28T22:44:15.181Z,16.30
2023-04-28T22:46:49.428Z,16.30
2023-04-28T22:49:26.353Z,16.30
2023-04-28T22:51:55.639Z,16.20
2023-04-28T22:54:40.718Z,16.20
2023-04-28T22:57:18.973Z,16.20
2023-04-28T22:59:51.894Z,16.20
2023-04-28T23:13:31.812Z,16.10
2023-04-28T23:16:10.390Z,16.10
2023-04-28T23:18:44.862Z,16.10
2023-04-28T23:21:24.214Z,16.10
2023-04-28T23:23:55.101Z,16.10
2023-04-28T23:26:45.543Z,16.10
2023-04-28T23:29:28.247Z,16.10
2023-04-28T23:32:03.330Z,16.10
2023-04-28T23:34:39.889Z,16.10
2023-04-28T23:37:16.489Z,16.10
2023-04-28T23:40:10.364Z,16.10
2023-04-28T23:42:45.222Z,16.00
2023-04-28T23:45:14.859Z,16.00
2023-04-28T23:47:50.669Z,16.00
2023-04-28T23:50:25.619Z,16.00
2023-04-28T23:52:57.710Z,16.00
